Alief, Texas
Current Conditions -  °F | °C
As of 3:53 AM on Monday 20 Oct 2014 (Local Time) from KSGR Reporting Station
Clear Clear  
Wind Chill: 69°   Ceiling: Unl
Heat Index: 69°   Visibility: 10mi
Dew Point: 62°   Wind: 7mph
Humidity: 78%   Direction: 80°E
Pressure: 30"   Gusts: NA
Location:  29.71°N, 95.6°W
Report Text: KSGR 200853Z AUTO 08006KT 10SM CLR 21/17 A3000 RMK AO2 SLP160 T02060167 58009
Loading
Personal Weather Stations






























Interactive Weather Map
Tropical Storm Tracking
New forecast layout! Learn more

10-Day Weather Forecast

Advertisements
Track Severe Weather on mobile